createdAt,value
2023-03-01T00:01:35.884Z,103355.75
2023-03-01T00:04:02.299Z,103343.38
2023-03-01T00:06:29.408Z,103338.94
2023-03-01T00:08:56.101Z,103350.47
2023-03-01T00:11:23.836Z,103343.38
2023-03-01T00:13:52.903Z,103352.25
2023-03-01T00:16:23.868Z,103355.78
2023-03-01T00:18:50.452Z,103355.81
2023-03-01T00:21:17.367Z,103350.47
2023-03-01T00:23:43.948Z,103354.91
2023-03-01T00:26:13.004Z,103348.72
2023-03-01T00:28:39.391Z,103338.09
2023-03-01T00:31:15.028Z,103343.41
2023-03-01T00:33:42.153Z,103338.13
2023-03-01T00:36:09.554Z,103333.75
2023-03-01T00:38:43.099Z,103331.09
2023-03-01T00:41:12.730Z,103334.59
2023-03-01T00:43:39.463Z,103325.81
2023-03-01T00:46:19.331Z,103332.88
2023-03-01T00:48:46.481Z,103342.59
2023-03-01T00:51:15.802Z,103337.28
2023-03-01T00:53:42.982Z,103341.72
2023-03-01T00:56:11.175Z,103331.97
2023-03-01T00:58:38.194Z,103332.88
2023-03-01T01:01:20.697Z,103320.50
2023-03-01T01:03:58.969Z,103326.69
2023-03-01T01:06:40.689Z,103323.16
2023-03-01T01:09:07.895Z,103326.69
2023-03-01T01:11:35.471Z,103321.41
2023-03-01T01:14:02.162Z,103319.66
2023-03-01T01:16:30.010Z,103317.88
2023-03-01T01:18:57.765Z,103317.00
2023-03-01T01:21:25.276Z,103317.00
2023-03-01T01:23:52.612Z,103302.88
2023-03-01T01:26:23.480Z,103301.09
2023-03-01T01:28:50.719Z,103301.97
2023-03-01T01:31:18.533Z,103299.34
2023-03-01T01:33:45.629Z,103309.03
2023-03-01T01:36:12.482Z,103291.38
2023-03-01T01:38:39.465Z,103292.28
2023-03-01T01:41:06.797Z,103290.50
2023-03-01T01:43:41.263Z,103290.50
2023-03-01T01:46:27.661Z,103289.59
2023-03-01T01:49:01.252Z,103300.19
2023-03-01T01:51:35.156Z,103290.50
2023-03-01T01:54:02.099Z,103285.22
2023-03-01T01:56:29.841Z,103290.50
2023-03-01T01:58:56.780Z,103289.63
2023-03-01T02:01:23.193Z,103278.13
2023-03-01T02:03:49.888Z,103274.59
2023-03-01T02:06:38.917Z,103271.94
2023-03-01T02:09:14.210Z,103271.09
2023-03-01T02:11:41.092Z,103276.38
2023-03-01T02:14:07.790Z,103285.19
2023-03-01T02:16:34.935Z,103278.13
2023-03-01T02:19:05.637Z,103270.19
2023-03-01T02:21:48.535Z,103273.72
2023-03-01T02:24:21.362Z,103274.63
2023-03-01T02:26:52.495Z,103271.06
2023-03-01T02:29:18.771Z,103271.06
2023-03-01T02:31:45.408Z,103272.84
2023-03-01T02:34:27.661Z,103261.38
2023-03-01T02:37:12.402Z,103262.22
2023-03-01T02:39:48.356Z,103249.00
2023-03-01T02:42:19.612Z,103253.44
2023-03-01T02:44:47.167Z,103249.00
2023-03-01T02:47:13.500Z,103250.78
2023-03-01T02:49:40.994Z,103245.47
2023-03-01T02:52:35.338Z,103243.72
2023-03-01T02:55:03.753Z,103251.66
2023-03-01T02:57:31.907Z,103251.66
2023-03-01T03:00:04.028Z,103248.09
2023-03-01T03:02:31.290Z,103248.09
2023-03-01T03:04:57.656Z,103246.31
2023-03-01T03:07:23.996Z,103242.78
2023-03-01T03:09:56.174Z,103243.66
2023-03-01T03:12:22.507Z,103240.13
2023-03-01T03:14:48.853Z,103238.41
2023-03-01T03:17:15.329Z,103251.66
2023-03-01T03:19:43.572Z,103250.75
2023-03-01T03:22:09.891Z,103233.09
2023-03-01T03:24:36.284Z,103229.59
2023-03-01T03:27:05.806Z,103226.03
2023-03-01T03:29:34.841Z,103227.78
2023-03-01T03:32:03.648Z,103224.25
2023-03-01T03:34:30.069Z,103232.16
2023-03-01T03:36:58.783Z,103233.06
2023-03-01T03:39:25.419Z,103236.56
2023-03-01T03:41:51.712Z,103234.81
2023-03-01T03:44:18.049Z,103233.97
2023-03-01T03:46:44.354Z,103238.34
2023-03-01T03:49:15.081Z,103238.31
2023-03-01T03:51:41.415Z,103233.03
2023-03-01T03:54:07.746Z,103226.84
2023-03-01T03:56:36.387Z,103218.06
2023-03-01T03:59:02.734Z,103216.31
2023-03-01T04:01:31.214Z,103221.56
2023-03-01T04:03:57.608Z,103219.84
2023-03-01T04:06:28.350Z,103226.88
2023-03-01T04:08:54.854Z,103228.66
2023-03-01T04:11:23.617Z,103219.84
2023-03-01T04:13:50.305Z,103222.44
2023-03-01T04:16:17.260Z,103220.69
2023-03-01T04:18:43.617Z,103231.25
2023-03-01T04:21:10.074Z,103233.03
2023-03-01T04:23:36.368Z,103233.88
2023-03-01T04:26:02.808Z,103222.41
2023-03-01T04:28:33.984Z,103228.59
2023-03-01T04:31:08.865Z,103226.00
2023-03-01T04:33:35.473Z,103224.16
2023-03-01T04:36:06.657Z,103227.69
2023-03-01T04:38:33.086Z,103226.84
2023-03-01T04:40:59.408Z,103226.81
2023-03-01T04:43:25.689Z,103216.22
2023-03-01T04:45:52.056Z,103219.75
2023-03-01T04:48:18.439Z,103207.41
2023-03-01T04:50:45.954Z,103211.78
2023-03-01T04:53:15.390Z,103203.88
2023-03-01T04:55:41.705Z,103206.50
2023-03-01T04:58:08.011Z,103202.13
2023-03-01T05:00:35.538Z,103202.13
2023-03-01T05:03:04.271Z,103195.03
2023-03-01T05:05:41.653Z,103193.28
2023-03-01T05:08:11.009Z,103180.91
2023-03-01T05:10:37.610Z,103190.66
2023-03-01T05:13:06.210Z,103183.56
2023-03-01T05:15:32.914Z,103179.13
2023-03-01T05:18:00.696Z,103181.78
2023-03-01T05:20:30.953Z,103180.88
2023-03-01T05:22:59.662Z,103177.34
2023-03-01T05:25:26.873Z,103166.78
2023-03-01T05:27:53.343Z,103171.16
2023-03-01T05:30:22.202Z,103165.00
2023-03-01T05:32:51.959Z,103160.59
2023-03-01T05:35:19.095Z,103157.09
2023-03-01T05:37:49.477Z,103161.50
2023-03-01T05:40:21.294Z,103145.63
2023-03-01T05:43:00.593Z,103144.69
2023-03-01T05:45:28.166Z,103152.66
2023-03-01T05:47:57.814Z,103142.97
2023-03-01T05:50:27.800Z,103142.97
2023-03-01T05:53:26.618Z,103146.47
2023-03-01T05:55:52.976Z,103144.72
2023-03-01T05:58:20.717Z,103134.16
2023-03-01T06:00:49.372Z,103142.03
2023-03-01T06:03:17.493Z,103140.28
2023-03-01T06:05:44.783Z,103140.28
2023-03-01T06:08:13.961Z,103133.25
2023-03-01T06:10:41.008Z,103136.75
2023-03-01T06:13:10.177Z,103135.84
2023-03-01T06:15:38.585Z,103142.03
2023-03-01T06:18:07.527Z,103147.31
2023-03-01T06:20:39.530Z,103151.72
2023-03-01T06:23:05.946Z,103146.44
2023-03-01T06:25:32.310Z,103148.22
2023-03-01T06:28:00.995Z,103145.56
2023-03-01T06:30:27.885Z,103139.44
2023-03-01T06:32:54.293Z,103142.97
2023-03-01T06:35:44.037Z,103144.72
2023-03-01T06:38:33.255Z,103150.00
2023-03-01T06:41:18.512Z,103151.81
2023-03-01T06:44:03.221Z,103147.38
2023-03-01T06:46:48.101Z,103149.16
2023-03-01T06:49:32.830Z,103149.16
2023-03-01T06:52:20.145Z,103143.88
2023-03-01T06:55:07.183Z,103139.50
2023-03-01T06:57:59.683Z,103144.78
2023-03-01T07:00:47.011Z,103141.28
2023-03-01T07:03:35.058Z,103143.13
2023-03-01T07:06:23.086Z,103147.50
2023-03-01T07:09:08.148Z,103139.50
2023-03-01T07:11:56.711Z,103147.34
2023-03-01T07:14:42.544Z,103145.50
2023-03-01T07:17:29.945Z,103135.75
2023-03-01T07:20:14.726Z,103141.81
2023-03-01T07:23:02.029Z,103147.03
2023-03-01T07:25:55.216Z,103144.19
2023-03-01T07:28:40.089Z,103137.72
2023-03-01T07:31:26.280Z,103148.13
2023-03-01T07:34:12.741Z,103145.09
2023-03-01T07:36:58.061Z,103135.81
2023-03-01T07:39:43.086Z,103135.56
2023-03-01T07:42:28.114Z,103149.41
2023-03-01T07:45:13.042Z,103151.81
2023-03-01T07:48:00.322Z,103149.97
2023-03-01T07:50:47.941Z,103153.84
2023-03-01T07:53:34.074Z,103150.16
2023-03-01T07:56:19.383Z,103151.47
2023-03-01T07:59:09.103Z,103150.22
2023-03-01T08:01:54.360Z,103143.03
2023-03-01T08:04:41.772Z,103149.06
2023-03-01T08:07:26.643Z,103141.97
2023-03-01T08:10:12.147Z,103143.16
2023-03-01T08:12:40.821Z,103136.13
2023-03-01T08:15:07.971Z,103143.44
2023-03-01T08:17:37.166Z,103138.47
2023-03-01T08:20:04.257Z,103138.03
2023-03-01T08:22:30.621Z,103135.13
2023-03-01T08:24:56.971Z,103136.47
2023-03-01T08:27:26.298Z,103134.22
2023-03-01T08:30:01.376Z,103133.75
2023-03-01T08:32:30.553Z,103126.50
2023-03-01T08:34:56.863Z,103125.44
2023-03-01T08:37:23.199Z,103126.25
2023-03-01T08:39:49.570Z,103128.88
2023-03-01T08:42:15.921Z,103117.66
2023-03-01T08:44:46.051Z,103122.44
2023-03-01T08:47:13.694Z,103114.00
2023-03-01T08:49:40.059Z,103106.75
2023-03-01T08:52:06.374Z,103110.75
2023-03-01T08:54:32.739Z,103104.94
2023-03-01T08:57:05.726Z,103097.75
2023-03-01T08:59:32.089Z,103089.84
2023-03-01T09:01:58.440Z,103095.63
2023-03-01T09:04:26.755Z,103091.19
2023-03-01T09:06:58.225Z,103092.25
2023-03-01T09:09:30.937Z,103089.53
2023-03-01T09:11:57.625Z,103083.75
2023-03-01T09:14:33.535Z,103090.97
2023-03-01T09:16:59.970Z,103082.88
2023-03-01T09:19:29.968Z,103076.50
2023-03-01T09:21:59.450Z,103070.53
2023-03-01T09:24:30.931Z,103069.53
2023-03-01T09:26:57.921Z,103066.47
2023-03-01T09:29:24.727Z,103058.28
2023-03-01T09:31:53.485Z,103053.44
2023-03-01T09:34:22.601Z,103043.53
2023-03-01T09:36:50.097Z,103043.31
2023-03-01T09:39:19.591Z,103035.31
2023-03-01T09:42:12.644Z,103038.38
2023-03-01T09:44:46.954Z,103033.44
2023-03-01T09:47:29.657Z,103039.25
2023-03-01T09:50:18.098Z,103036.84
2023-03-01T09:52:44.393Z,103030.63
2023-03-01T09:55:13.953Z,103024.97
2023-03-01T09:58:03.494Z,103035.38
2023-03-01T10:01:02.139Z,103039.44
2023-03-01T10:03:45.628Z,103036.31
2023-03-01T10:06:34.042Z,103046.44
2023-03-01T10:09:09.850Z,103043.75
2023-03-01T10:11:44.335Z,103047.38
2023-03-01T10:14:13.654Z,103048.66
2023-03-01T10:16:50.842Z,103038.91
2023-03-01T10:19:25.113Z,103033.09
2023-03-01T10:21:52.481Z,103032.06
2023-03-01T10:24:20.614Z,103026.97
2023-03-01T10:27:00.832Z,103021.75
2023-03-01T10:29:46.990Z,103024.28
2023-03-01T10:32:25.078Z,103024.59
2023-03-01T10:34:51.655Z,103017.78
2023-03-01T10:37:22.360Z,103007.25
2023-03-01T10:40:04.398Z,103008.03
2023-03-01T10:42:34.128Z,103004.69
2023-03-01T10:45:34.714Z,102990.59
2023-03-01T10:48:26.043Z,102994.31
2023-03-01T10:50:58.247Z,102996.59
2023-03-01T10:53:37.610Z,102983.47
2023-03-01T10:56:13.039Z,102981.72
2023-03-01T10:58:56.899Z,102978.28
2023-03-01T11:01:23.272Z,102968.91
2023-03-01T11:04:10.149Z,102969.88
2023-03-01T11:06:42.126Z,102970.41
2023-03-01T11:09:22.990Z,102962.22
2023-03-01T11:11:56.326Z,102956.91
2023-03-01T11:14:28.641Z,102944.38
2023-03-01T11:17:06.831Z,102943.53
2023-03-01T11:19:35.720Z,102948.03
2023-03-01T11:22:20.331Z,102941.06
2023-03-01T11:25:09.345Z,102929.03
2023-03-01T11:27:47.879Z,102935.81
2023-03-01T11:31:08.241Z,102932.41
2023-03-01T11:34:05.740Z,102929.81
2023-03-01T11:36:52.985Z,102928.66
2023-03-01T11:39:32.912Z,102917.59
2023-03-01T11:42:19.063Z,102928.19
2023-03-01T11:44:48.640Z,102933.97
2023-03-01T11:47:23.168Z,102925.81
2023-03-01T11:50:14.424Z,102924.31
2023-03-01T11:53:05.178Z,102928.72
2023-03-01T11:55:51.979Z,102926.13
2023-03-01T11:58:32.927Z,102911.53
2023-03-01T12:01:11.338Z,102913.00
2023-03-01T12:03:56.045Z,102920.75
2023-03-01T12:06:30.962Z,102908.28
2023-03-01T12:09:18.057Z,102909.91
2023-03-01T12:12:06.676Z,102916.03
2023-03-01T12:14:48.178Z,102910.59
2023-03-01T12:17:44.241Z,102909.78
2023-03-01T12:20:13.533Z,102913.50
2023-03-01T12:23:19.670Z,102919.00
2023-03-01T12:26:22.550Z,102905.38
2023-03-01T12:29:12.266Z,102908.00
2023-03-01T12:31:53.014Z,102905.50
2023-03-01T12:35:31.146Z,102894.19
2023-03-01T12:38:26.674Z,102889.25
2023-03-01T12:41:30.494Z,102887.16
2023-03-01T12:44:17.293Z,102880.56
2023-03-01T12:47:11.445Z,102885.25
2023-03-01T12:49:50.948Z,102875.97
2023-03-01T12:52:38.574Z,102865.81
2023-03-01T12:55:20.687Z,102874.69
2023-03-01T12:58:02.426Z,102865.09
2023-03-01T13:00:38.304Z,102855.47
2023-03-01T13:03:40.793Z,102838.31
2023-03-01T13:06:21.547Z,102831.72
2023-03-01T13:09:25.356Z,102827.19
2023-03-01T13:11:51.703Z,102827.50
2023-03-01T13:14:21.048Z,102819.16
2023-03-01T13:16:50.312Z,102825.47
2023-03-01T13:19:22.186Z,102825.53
2023-03-01T13:21:50.845Z,102810.69
2023-03-01T13:24:30.645Z,102813.78
2023-03-01T13:27:10.329Z,102797.22
2023-03-01T13:29:50.526Z,102801.63
2023-03-01T13:32:45.234Z,102793.69
2023-03-01T13:35:21.024Z,102784.09
2023-03-01T13:37:47.937Z,102793.91
2023-03-01T13:40:20.991Z,102775.53
2023-03-01T13:43:04.886Z,102773.22
2023-03-01T13:45:40.339Z,102772.53
2023-03-01T13:48:16.758Z,102778.94
2023-03-01T13:50:52.454Z,102770.16
2023-03-01T13:53:22.293Z,102769.28
2023-03-01T13:56:02.838Z,102769.63
2023-03-01T13:58:34.763Z,102779.03
2023-03-01T14:01:06.026Z,102760.25
2023-03-01T14:03:41.715Z,102755.63
2023-03-01T14:06:22.765Z,102750.81
2023-03-01T14:09:01.252Z,102752.81
2023-03-01T14:11:35.945Z,102744.41
2023-03-01T14:14:23.691Z,102744.06
2023-03-01T14:17:11.220Z,102733.88
2023-03-01T14:19:40.695Z,102721.59
2023-03-01T14:22:20.015Z,102733.94
2023-03-01T14:24:52.620Z,102717.56
2023-03-01T14:27:19.449Z,102718.19
2023-03-01T14:29:59.465Z,102707.09
2023-03-01T14:32:36.990Z,102707.06
2023-03-01T14:35:03.508Z,102697.38
2023-03-01T14:37:38.567Z,102700.16
2023-03-01T14:40:05.891Z,102690.72
2023-03-01T14:42:38.846Z,102686.25
2023-03-01T14:45:10.638Z,102690.03
2023-03-01T14:47:44.407Z,102690.03
2023-03-01T14:50:28.139Z,102686.19
2023-03-01T14:53:04.507Z,102684.72
2023-03-01T14:55:36.706Z,102678.66
2023-03-01T14:58:13.134Z,102675.88
2023-03-01T15:00:47.580Z,102683.06
2023-03-01T15:03:20.026Z,102684.81
2023-03-01T15:05:46.614Z,102685.56
2023-03-01T15:08:25.659Z,102678.16
2023-03-01T15:11:24.418Z,102693.75
2023-03-01T15:13:52.643Z,102684.03
2023-03-01T15:16:23.798Z,102680.13
2023-03-01T15:18:54.421Z,102671.78
2023-03-01T15:21:24.044Z,102677.09
2023-03-01T15:23:57.189Z,102675.19
2023-03-01T15:26:30.091Z,102673.78
2023-03-01T15:28:59.022Z,102673.84
2023-03-01T15:31:36.179Z,102670.38
2023-03-01T15:34:10.998Z,102661.94
2023-03-01T15:36:43.414Z,102662.09
2023-03-01T15:39:38.974Z,102662.84
2023-03-01T15:42:33.686Z,102657.09
2023-03-01T15:45:10.778Z,102655.81
2023-03-01T15:47:42.266Z,102661.69
2023-03-01T15:50:42.486Z,102654.69
2023-03-01T15:53:12.733Z,102661.56
2023-03-01T15:55:42.155Z,102655.56
2023-03-01T15:58:17.848Z,102652.69
2023-03-01T16:00:59.780Z,102659.66
2023-03-01T16:03:33.108Z,102650.66
2023-03-01T16:05:59.422Z,102658.09
2023-03-01T16:08:27.976Z,102658.28
2023-03-01T16:10:54.277Z,102641.84
2023-03-01T16:13:20.617Z,102643.09
2023-03-01T16:15:50.026Z,102649.88
2023-03-01T16:18:16.447Z,102636.78
2023-03-01T16:20:45.714Z,102644.81
2023-03-01T16:23:12.308Z,102643.00
2023-03-01T16:25:41.426Z,102644.50
2023-03-01T16:28:10.558Z,102648.19
2023-03-01T16:30:40.117Z,102655.59
2023-03-01T16:33:23.979Z,102654.94
2023-03-01T16:35:52.556Z,102656.09
2023-03-01T16:38:19.054Z,102649.91
2023-03-01T16:40:50.208Z,102649.22
2023-03-01T16:43:16.715Z,102656.00
2023-03-01T16:45:43.124Z,102649.75
2023-03-01T16:48:09.505Z,102664.34
2023-03-01T16:50:35.844Z,102658.66
2023-03-01T16:53:02.175Z,102669.31
2023-03-01T16:55:30.518Z,102668.19
2023-03-01T16:57:56.900Z,102666.47
2023-03-01T17:00:27.225Z,102669.47
2023-03-01T17:02:56.721Z,102669.91
2023-03-01T17:05:25.065Z,102672.59
2023-03-01T17:07:53.525Z,102671.22
2023-03-01T17:10:22.518Z,102673.28
2023-03-01T17:12:49.804Z,102663.09
2023-03-01T17:15:19.387Z,102666.69
2023-03-01T17:17:48.148Z,102668.88
2023-03-01T17:20:19.321Z,102668.66
2023-03-01T17:22:47.608Z,102671.97
2023-03-01T17:25:14.203Z,102664.13
2023-03-01T17:27:50.564Z,102675.75
2023-03-01T17:30:20.731Z,102669.66
2023-03-01T17:32:50.080Z,102664.88
2023-03-01T17:35:16.681Z,102674.38
2023-03-01T17:37:46.169Z,102671.13
2023-03-01T17:40:13.530Z,102676.44
2023-03-01T17:42:42.655Z,102673.41
2023-03-01T17:45:09.365Z,102670.06
2023-03-01T17:47:40.295Z,102669.34
2023-03-01T17:50:07.122Z,102668.03
2023-03-01T17:52:34.663Z,102673.13
2023-03-01T17:55:02.326Z,102667.75
2023-03-01T17:57:28.720Z,102673.28
2023-03-01T17:59:55.149Z,102673.69
2023-03-01T18:02:21.656Z,102671.41
2023-03-01T18:04:48.147Z,102677.28
2023-03-01T18:07:14.566Z,102681.72
2023-03-01T18:09:41.123Z,102680.91
2023-03-01T18:12:07.905Z,102680.03
2023-03-01T18:14:34.317Z,102681.38
2023-03-01T18:17:01.080Z,102688.84
2023-03-01T18:19:30.179Z,102700.16
2023-03-01T18:21:56.511Z,102684.88
2023-03-01T18:24:23.499Z,102703.94
2023-03-01T18:26:56.003Z,102697.06
2023-03-01T18:29:22.433Z,102701.34
2023-03-01T18:31:51.225Z,102704.47
2023-03-01T18:34:17.839Z,102693.56
2023-03-01T18:37:00.473Z,102704.78
2023-03-01T18:39:32.138Z,102704.09
2023-03-01T18:42:01.059Z,102707.00
2023-03-01T18:44:29.928Z,102707.25
2023-03-01T18:46:58.522Z,102708.31
2023-03-01T18:49:25.727Z,102709.53
2023-03-01T18:51:52.363Z,102713.81
2023-03-01T18:54:18.858Z,102713.44
2023-03-01T18:56:45.701Z,102715.91
2023-03-01T18:59:12.573Z,102720.47
2023-03-01T19:01:39.309Z,102713.66
2023-03-01T19:04:05.944Z,102707.63
2023-03-01T19:06:36.701Z,102724.81
2023-03-01T19:09:06.823Z,102719.66
2023-03-01T19:14:18.419Z,102723.91
2023-03-01T19:16:44.802Z,102717.38
2023-03-01T19:19:16.311Z,102716.91
2023-03-01T19:21:42.724Z,102721.41
2023-03-01T19:24:11.549Z,102719.88
2023-03-01T19:26:37.955Z,102717.22
2023-03-01T19:29:12.177Z,102711.91
2023-03-01T19:31:38.931Z,102712.16
2023-03-01T19:34:12.377Z,102716.00
2023-03-01T19:36:41.524Z,102725.13
2023-03-01T19:39:14.064Z,102717.91
2023-03-01T19:41:43.556Z,102715.56
2023-03-01T19:44:12.417Z,102717.91
2023-03-01T19:46:40.326Z,102713.16
2023-03-01T19:49:09.881Z,102706.84
2023-03-01T19:51:36.563Z,102702.69
2023-03-01T19:54:03.802Z,102701.53
2023-03-01T19:56:32.972Z,102700.03
2023-03-01T19:58:59.625Z,102704.34
2023-03-01T20:01:27.310Z,102708.09
2023-03-01T20:03:54.159Z,102719.94
2023-03-01T20:06:21.442Z,102712.63
2023-03-01T20:08:48.820Z,102714.41
2023-03-01T20:11:17.423Z,102706.28
2023-03-01T20:13:46.618Z,102713.34
2023-03-01T20:16:17.133Z,102718.63
2023-03-01T20:18:43.587Z,102710.72
2023-03-01T20:21:22.805Z,102712.09
2023-03-01T20:23:50.227Z,102706.28
2023-03-01T20:26:16.921Z,102700.50
2023-03-01T20:28:43.902Z,102707.03
2023-03-01T20:31:12.773Z,102718.72
2023-03-01T20:33:39.380Z,102703.78
2023-03-01T20:36:09.189Z,102711.78
2023-03-01T20:38:36.664Z,102708.28
2023-03-01T20:41:10.775Z,102703.63
2023-03-01T20:43:37.684Z,102706.50
2023-03-01T20:46:05.904Z,102707.19
2023-03-01T20:48:33.983Z,102702.00
2023-03-01T20:51:04.338Z,102705.94
2023-03-01T20:53:30.642Z,102710.22
2023-03-01T20:56:08.032Z,102712.78
2023-03-01T20:58:36.880Z,102705.31
2023-03-01T21:01:05.432Z,102712.28
2023-03-01T21:03:34.643Z,102706.56
2023-03-01T21:06:03.831Z,102704.16
2023-03-01T21:08:30.648Z,102708.75
2023-03-01T21:10:57.191Z,102708.13
2023-03-01T21:13:24.677Z,102706.59
2023-03-01T21:15:56.535Z,102704.06
2023-03-01T21:18:23.400Z,102714.44
2023-03-01T21:20:52.545Z,102710.00
2023-03-01T21:23:18.981Z,102708.75
2023-03-01T21:25:45.344Z,102699.03
2023-03-01T21:28:11.640Z,102695.00
2023-03-01T21:30:41.145Z,102702.19
2023-03-01T21:33:07.494Z,102708.34
2023-03-01T21:35:36.742Z,102709.09
2023-03-01T21:38:03.151Z,102711.84
2023-03-01T21:40:29.459Z,102703.66
2023-03-01T21:42:57.022Z,102701.78
2023-03-01T21:45:24.317Z,102696.97
2023-03-01T21:47:53.525Z,102710.38
2023-03-01T21:50:19.875Z,102709.34
2023-03-01T21:52:46.242Z,102713.13
2023-03-01T21:55:12.616Z,102714.25
2023-03-01T21:57:38.909Z,102713.72
2023-03-01T22:00:08.108Z,102711.63
2023-03-01T22:02:35.687Z,102712.00
2023-03-01T22:05:02.054Z,102708.06
2023-03-01T22:07:30.461Z,102706.47
2023-03-01T22:09:56.846Z,102705.84
2023-03-01T22:12:23.395Z,102688.88
2023-03-01T22:14:49.784Z,102691.53
2023-03-01T22:17:16.230Z,102695.19
2023-03-01T22:19:42.558Z,102700.13
2023-03-01T22:22:11.352Z,102705.03
2023-03-01T22:24:37.694Z,102710.91
2023-03-01T22:27:04.109Z,102696.63
2023-03-01T22:29:32.820Z,102712.50
2023-03-01T22:31:59.521Z,102715.19
2023-03-01T22:34:28.640Z,102714.28
2023-03-01T22:36:55.028Z,102711.59
2023-03-01T22:39:21.430Z,102710.50
2023-03-01T22:41:49.789Z,102710.38
2023-03-01T22:44:19.564Z,102718.00
2023-03-01T22:46:46.531Z,102718.75
2023-03-01T22:49:13.019Z,102717.88
2023-03-01T22:51:42.644Z,102721.78
2023-03-01T22:54:10.507Z,102723.63
2023-03-01T22:56:44.302Z,102721.63
2023-03-01T22:59:14.548Z,102733.94
2023-03-01T23:01:42.858Z,102710.97
2023-03-01T23:04:09.224Z,102706.69
2023-03-01T23:06:38.203Z,102710.28
2023-03-01T23:09:06.923Z,102707.94
2023-03-01T23:11:33.298Z,102709.84
2023-03-01T23:14:02.415Z,102710.09
2023-03-01T23:16:28.813Z,102712.00
2023-03-01T23:19:04.002Z,102710.94
2023-03-01T23:21:31.183Z,102707.47
2023-03-01T23:24:06.142Z,102713.63
2023-03-01T23:26:35.080Z,102723.28
2023-03-01T23:29:01.522Z,102722.34
2023-03-01T23:31:28.000Z,102719.66
2023-03-01T23:33:54.388Z,102707.13
2023-03-01T23:36:32.513Z,102710.81
2023-03-01T23:39:05.553Z,102701.09
2023-03-01T23:41:34.413Z,102704.59
2023-03-01T23:44:05.083Z,102700.03
2023-03-01T23:46:35.176Z,102701.16
2023-03-01T23:49:04.944Z,102694.97
2023-03-01T23:51:32.515Z,102693.34
2023-03-01T23:54:02.826Z,102692.22
2023-03-01T23:56:37.886Z,102689.47
2023-03-01T23:59:10.678Z,102686.66
